Signals | Log Session 14302
Paging Controls
KHz ID LSB USB Sec. Fmt. Location S/P ITU Region GSQ Power Logs Notes Latest by Listener Last Heard KM Miles Deg
224 BH 1043 1035 6.104 'Mc Den' Birmingham AL USA na EM63nm 400 1 2024-01-08 2024-03-25 3445 2141 105
224 QM 407 10.24 DAID Moncton NB CAN na FN76rc 400 1 !! Phase 12 decom May 16 2024 2024-01-08 2024-03-25 4314 2681 71
227 TNZ 1034 1040 6.05 'Lawrence Co.' Walnut Ridge AR USA na EM46me 25 1 2024-01-08 2024-03-24 2969 1845 106
236 OW 10.32 DAID Ramsayville (Ottawa) ON CAN na FN25fi 60 1 !! Phase 11 decom Jan 25 2024 // Steve H confirms it is gone 2024-01-08 2024-01-23 3575 2221 77
251 BR 1030 1028 6.049 'Larew' Brainerd MN USA na EN26xk 25 1 2024-01-08 2024-02-18 2194 1363 85
251 JZY 1039 1040 7.96 Macomb IL USA na EN40rm 25 1 2024-01-08 2024-03-01 2725 1693 97
253 OC 1033 1035 5.876 'Nados' Nacogdoches TX USA na EM21pl 25 1 2016 07 14 Douglas Springfield reports mis-key \"OTE 2024-01-08 2024-02-19 3072 1909 118
257 JYR 1005 1019 7.582 York NE USA na EN10ev 25 1 2X sdb harmonic rptd 2024-01-08 2024-03-10 2194 1363 104
260 CL 1054 1056 6.011 'Rowdy' College Station TX USA na EM10tl 1 2024-01-08 2024-01-08 3050 1895 122
260 JH 1031 1027 6.141 'Brenz' Jackson MS USA na EM42uj 1 2024-01-08 2024-03-11 3292 2046 111
260 MTH 1037 1035 6.894 Marathon FL USA na EL94kr 100 1 2024-01-08 2024-02-17 4527 2813 110
263 GR 1027 1029 5.964 'Knobs' Grand Rapids MI USA na EN72hv 1 Back after extended absense (2004-08-22, Joe Mann) 2024-01-08 2024-03-01 2976 1849 88
266 ZHM 430 382 10.36 DAID Hamilton (Binbrook) ON CAN na FN03cd 50 1 !! Phase 12 decom Oct 31 2024 // Was B-266 2024-01-08 2024-03-13 3371 2095 84
267 HET 1021 1025 4.482 Henryetta OK USA na EM15xj 25 1 20071207 reported by Dick Palmer to heard on 263 KHz. 2024-01-08 2024-04-08 2677 1663 113
269 PK 1048 1049 6.087 'Spida' Park Rapids MN USA na EN26mu 25 1 2024-01-08 2024-02-18 2113 1313 85
273 FK 1041 1033 5.922 'Airbe' Fort Campbell (Hopkinsville) KY USA na EM66hr 25 1 2024-01-08 2024-03-10 3187 1980 101
275 RU 1016 1023 4.459 'Rovdy' Salisbury NC USA na EM95sr 1 2024-01-08 2024-03-12 3753 2332 96
278 AUR 1037 1027 7.985 'Sulfy' Sulphur LA USA na EM30ge 25 1 Was UX-278 2024-01-08 2024-03-10 3258 2025 118
278 CEP 1046 1036 8.058 'Capitan' Ruidoso NM USA na DM73hl 25 1 2024-01-08 2024-03-10 2262 1406 132
278 EOE 402 394 5.232 'Enoree' Newberry SC USA na EM94eh 25 1 2024-01-08 2024-03-10 3764 2339 99
290 YYH 390 404 10.63 DAID Taloyoak NU CAN na EP39fm 1000 1 2024-01-08 2024-01-21 2795 1736 24
293 FBY 1028 1005 6.6 Fairbury NE USA na EN10ke 50 1 31July23 updated upper offset to +1007 per Don T 2024-01-08 2024-03-10 2272 1412 105
296 M4 387 418 11.822 DAID Gimli MB CAN na EO10lp 1 There an amazing true story about 'The Gimli Glider' - a plane that landed here once at http://www.wadenelson.com/gimli.html (Thanks to Joe Mann) 20171230: Tony reports it is back in service 2024-01-08 2024-01-15 1886 1172 73
299 HW 1054 1055 6.12 'Cubla' Wilmington OH USA na EM89bi 1 ULS WRLB3317 - expires 2/13/2026 2024-01-08 2024-03-10 3277 2036 93
302 HO 1041 1027 8.355 See note 'Beady' Huron SD USA na EN04tk 25 1 Sometimes heard with DAID 2024-01-08 2024-03-12 1955 1214 95
323 OUK 1025 5.993 Calhoun GA USA na EM74mj 24 1 !! Decom per NFDD 046 - 2 03/08/2019 // Still transmitting as of 29 Feb 2024 2024-01-08 2024-03-10 3519 2186 102
323 TAB 410 405 8.4 ID+5" gap Crown Point TRD ca FK91nd 1 2024-01-08 2024-02-25 7073 4394 103
329 CH 1045 1036 5.85 'Ashly' Charleston SC USA na EM92wx 400 1 2024-01-08 2024-03-12 3965 2464 100
329 YEK 404 403 10.124 DAID Arviat NU CAN na EP21xc 500 1 2024-01-08 2024-03-10 2279 1416 42
331 JV 1036 1026 5.963 'Catch' Jeffersonville IN USA na EM78dl 1 2024-01-08 2024-03-10 3196 1986 96
332 SG 1046 1026 6.024 'Depre' Green Bay WI USA na EN54wj 25 1 2024-01-08 2024-03-10 2706 1681 87
335 BV 1030 1026 7.977 'Almnd' Batesville AR USA na EM45cq 25 1 Thanks to Bill Hohenstein K0HA for IDing BV 2024-01-08 2024-03-10 2946 1831 107
335 DR 1011 1030 8.599 'Kotti' Del Rio TX USA na DL99mk 1 -1030 Hz rptd. 20170130 - Steve Ratzlaff reports it is spurious and carrier has strong warble. 2024-01-08 2024-03-12 2871 1784 130
338 HR 8.146 'Sebas' Harlingen TX USA na EL16eh 25 1 !!* Decom .. yet active -- Decom per NFDD 028 - 1 (02/11/2020) Transmitting as of 10 Mar 2024 2024-01-08 2024-03-10 3344 2077 129
338 TU 1045 1030 6.568 'Oillr' Tulsa OK USA na EM26bc 1 2021/02/17 Noted off air by DT // 2024-01-08 2024-03-10 2636 1638 112
338 YPX 404 402 10.314 DAID Puvirnituq QC CAN na FP10ib 500 1 2024-01-08 2024-03-12 3144 1954 49
340 GN 5.866 'Brindl' Lexington KY USA na EM78rc 1 !! decom per NFDD 245-4 (12/22/2023) / Was \'TST\' in September 2003 // Still transmitting as of 31Dec23 2024-01-08 2024-01-19 3304 2053 96
341 CQN 1056 1022 9.007 'Daisy' Chattanooga TN USA na EM75kd 50 1 2024-01-08 2024-03-10 3455 2147 101
341 DNI 1018 1030 5.319 Denison TX USA na EM13pt 25 1 2024-01-08 2024-03-10 2755 1712 117
341 EI 1049 1017 7.931 'Garfy' Enid OK USA na EM16cg 1 2024-01-08 2024-03-12 2495 1550 114
344 ES 1056 1044 6.007 'Pikle' Escanaba MI USA na EN65jr 25 1 2024-01-08 2024-01-08 2717 1688 83
344 JL 1022 1025 5.676 'Lunns' Joplin MO USA na EM27re 1 2014-10-27 Dick Palmer reports it appears to be OTA 2024-01-08 2024-03-10 2650 1647 108
344 TKH 1052 1036 7.936 'Tallulah' Vicksburg LA USA na EM42lf 1 2011-02-14 - Was TV-344 2024-01-08 2024-03-10 3254 2022 112
349 GW 7.921 'Teock' Greenwood MS USA na EM43wo 25 1 !! To be decommissioned per NFDD 064 - 1 (04/02/2024) - EFFECTIVE 16 MAY 2024 2024-01-08 2024-03-10 3213 1996 109
350 LF 1046 1039 6.039 'Flufy' Lufkin TX USA na EM21of 1 2024-01-08 2024-01-08 3087 1918 118
351 MSQ 1009 1015 6.311 Culpeper VA USA na FM18bk 25 1 ULS WPYG956 - 27.4M tall antenna 2024-01-08 2024-02-20 3771 2343 90
352 BVG 1043 1045 8.979 'Boll Weevil' Enterprise AL USA na EM71ai 1 2024-01-08 2024-01-08 3670 2280 108
353 AB 1042 1020 5.673 'Tomhi' Abilene TX USA na EM02dh 1 2024-01-08 2024-01-14 2690 1671 124
359 GYG 1051 1012 8.891 Grayling MI USA na EN74or 25 1 According to Doug Klein (2005-01-25): \'Home base for tourism to Michigan\'s Elk herd, which roams the wilds north and east of here, a herd numbering about 1,500 animals.\' 2024-01-08 2024-02-17 2934 1823 84
360 GP 1017 1016 8.6 'Bayou' Gulfport MS USA na EM50kl 1 2024-01-08 2024-02-17 3521 2187 112
361 HB 1042 1025 6.321 'Himun' Burlington NC USA na FM05ex 1 20100806 - Michael Oexner reports it is has been changed to HBJ-361 // but ... it is transmitting \"HB\" 2024-01-08 2024-02-20 3797 2359 95
363 RNB 1046 1018 8.349 'Rainbow' Millville NJ USA na FM29kk 50 1 2024-01-08 2024-03-12 3912 2431 87
366 EZM 1024 1024 5.464 Eastman GA USA na EM82kd 25 1 2024-01-08 2024-02-17 3810 2368 104
368 VIQ 1029 1023 5.748 Neillsville WI USA na EN44rn 25 1 !!* Decom .. yet active NOTAM: GRB 01/713 VIQ NAV NDB OUT OF SERVICE 1801311510-PERM. Note: Several listeners have logged this one since the NOTAM, and recent Google imagery still shows an antenna is there 2024-01-08 2024-03-04 2522 1567 88
369 ZDX 1020 1016 10.11 ID+6" gap Coolidge Saint Johns ATG ca FK97cd 700 1 V C Bird Intl Apt. 2024-01-08 2024-02-19 6508 4044 100
371 FQW 1014 1016 6.926 'Walter Hill' Murfreesboro TN USA na EM65tx 25 1 FQW 371 Walter Hill - Murfreesboro, TN, serving Rwy18 at Murfreesboro Municipal Apt, NOTAM extended to 8Sep22: NOTAM 11/215: Murfreesboro Municipal Airport (KMBT) !BNA 11/215 MBT NAV FQW NDB U/S 2111122046-2209082359 CREATED: 12 Nov 2021 20:46:00 SOURCE: KBNAYFYX 2024-01-08 2024-01-08 3309 2056 101
372 UQN 1008 1017 5.666 'Onyun' Vidalia GA USA na EM82uf 25 1 2024-01-08 2024-02-20 3864 2401 103
375 DS 1039 1040 5.803 Searcy AR USA na EM45cc 25 1 2024-01-08 2024-01-30 2988 1856 108
375 LF 1023 1017 8.6 'Laffs' Lafayette LA USA na EM40bg 1 2024-01-08 2024-02-17 3354 2084 116
376 LC 1039 1024 5.94 'Pickl' Columbus OH USA na EM89nv 25 1 2024-01-08 2024-01-30 3319 2062 92
378 RJ 410 400 10.308 DAID Roberval QC CAN na FN38un 500 1 2024-01-08 2024-03-12 3670 2281 70
379 BRA 1035 1037 7.977 'Broad River' Asheville NC USA na EM85sg 100 1 2024-01-08 2024-03-13 3639 2261 99
382 MW 1022 1019 8.599 'Jonny' Marion IL USA na EM57mu 25 1 2024-01-08 2024-02-20 3001 1864 101
383 LB 1017 1022 8.599 'Panck' Liberal KS USA na DM96mx 1 2024-01-08 2024-01-22 2234 1388 117
385 DXB 1041 1025 8.051 De Ridder LA USA na EM30hs 1 20090814 - Doug Springfield reports DR/385 has changed to DXB/385 2024-01-08 2024-02-26 3216 1998 117
385 EMR 1051 1024 7.768 'Emory' Augusta GA USA na EM93al 400 1 2024-01-08 2024-02-26 3798 2360 101
385 JD 1060 1026 6.095 'Gooey' Belleville IL USA na EM58dl 1 2024-01-08 2024-02-26 2907 1806 100
385 LN 1063 1026 5.9 'Potts' Lincoln NE USA na EN10or 45 1 2024-01-08 2024-02-26 2263 1406 103
388 CDX 1045 1032 7.925 'Cumberland River' Somerset KY USA na EM76px 25 1 2024-01-08 2024-02-26 3363 2090 98
388 CFJ 1010 1013 7.325 Crawfordsville IN USA na EM69nx 25 1 ULS WQBU305 2024-01-08 2024-03-06 3022 1878 95
393 BR 1031 1034 6.522 'Depoo' Brownsville TX USA na EL15fx 1 2024-01-08 2024-02-25 3379 2099 129
393 BZ 1036 1022 6.055 'Fossi' Clinton OK USA na EM05jk 25 1 2024-01-08 2024-02-26 2465 1532 118
397 JE 1050 1028 5.933 'Algoa' Jefferson City MO USA na EM38xn 1 2024-01-08 2024-02-26 2735 1699 102
397 ZHA 401 401 10.363 DAID Ancaster (Hamilton) ON CAN na EN93xe 14 1 !! Phase 12 decom Oct 31 2024 // 20180101 Tony reports offset of +400 2024-01-08 2024-03-12 3351 2082 84
400 AI 1059 1022 6.023 'Addmo' Ardmore OK USA na EM14mf 25 1 2024-01-08 2024-01-29 2706 1681 117
400 ROB 1051 1018 9.959 'Robinson' Waco TX USA na EM11lm 1 2024-01-08 2024-01-28 2921 1815 121
402 CV 1028 1015 6.1 Carlz Carlsbad NM USA na DM72tg 1 2024-01-08 2024-01-29 2426 1507 132
407 IL 1034 1037 6.431 'Airbo' Wilmington OH USA na EM89dl 25 1 2024-01-08 2024-02-20 3282 2039 93
410 GG 1029 1036 5.913 'Veels' Longview TX USA na EM22ok 1 2024-01-08 2024-02-20 2989 1857 117
412 CTZ 999 1018 5.627 Clinton NC USA na FM04tx 25 1 2024-01-08 2024-02-20 3954 2457 95
413 MC 394 405 8.599 'Ferni' Mc Comb MS USA na EM41rg 25 1 2024-01-08 2024-02-07 3363 2089 113
414 GL 1024 1017 8.63 'Shugr' Goodland KS USA na DM99eh 25 1 GL 414 SHUGR - Goodland, KS, serving Rwy30 at Goodland Municipal Apt 2024-01-08 2024-01-28 2019 1255 113
417 SLP 1024 1031 6.161 'First River' Shelby NC USA na EM95eg 25 1 2024-01-08 2024-02-25 3699 2298 98
419 GB 1043 1015 6.842 'Babsy' Great Bend KS USA na EM08ng 25 1 Negative ''EAV'' + DAID rptd on 418 kHz -- 12Jun2020 updated offsets and cycle (Don T) 2024-01-08 2024-01-26 2277 1415 111
420 PK 1044 1021 5.975 Olathe KS USA na EM28ps 25 1 2024-01-08 2024-01-08 2532 1573 105
420 TU 409 386 6.083 'Veron' Tupelo MS USA na EM54oe 25 1 2024-01-08 2024-02-20 3263 2027 107
423 PCW 1004 1014 6.906 Port Clinton OH USA na EN81nm 25 1 20090917 - Don Ward reports that it fades in and out over 31-34 sec. period; did this for hours, over three consecutive nights 2024-01-08 2024-02-20 3229 2006 89
426 UV 1056 1010 6.827 'Tunng' Oxford MS USA na EM54ej 25 1 2024-01-08 2024-03-10 3190 1982 107
521 GM 1080 998 5.865 'Judky' Greenville SC USA na EM84ts 1 2024-01-08 2024-01-30 3678 2286 99